Time;durP1;ratioP1;P1;durP2;ratioP2;P2;SDS_P1;SDS_P2;PMS_P1;PMS_P2;Temp;Humidity;BMP_temperature;BMP_pressure;BME280_temperature;BME280_humidity;BME280_pressure;Samples;Min_cycle;Max_cycle;Signal;HPM_P1;HPM_P2
2023/07/18 00:01:56;;;;;;;;;;;;;;;14.26;100.00;102196.16;5018852;28;19913;-82
2023/07/18 00:04:25;;;;;;;;;;;;;;;14.26;100.00;102195.31;5036647;28;19913;-82
2023/07/18 00:06:51;;;;;;;;;;;;;;;14.25;100.00;102188.25;5036464;28;19913;-82
2023/07/18 00:09:16;;;;;;;;;;;;;;;14.23;100.00;102188.38;5036220;28;19913;-81
2023/07/18 00:11:42;;;;;;;;;;;;;;;14.21;100.00;102190.34;5036448;28;19924;-81
2023/07/18 00:14:08;;;;;;;;;;;;;;;14.19;100.00;102180.75;5037031;28;19968;-81
2023/07/18 00:16:33;;;;;;;;;;;;;;;14.18;100.00;102179.03;5036870;28;19971;-81
2023/07/18 00:18:59;;;;;;;;;;;;;;;14.17;100.00;102180.03;5036522;28;19917;-82
2023/07/18 00:21:24;;;;;;;;;;;;;;;14.14;100.00;102181.13;5018309;28;19970;-83
2023/07/18 00:23:50;;;;;;;;;;;;;;;14.12;100.00;102183.06;5036072;28;19964;-83
2023/07/18 00:26:16;;;;;;;;;;;;;;;14.08;100.00;102174.47;5036375;28;19924;-83
2023/07/18 00:28:41;;;;;;;;;;;;;;;14.05;100.00;102169.38;5036037;28;19920;-81
2023/07/18 00:31:06;;;;;;;;;;;;;;;14.02;100.00;102174.97;5036393;28;19920;-81
2023/07/18 00:33:32;;;;;;;;;;;;;;;14.00;100.00;102174.28;5036665;28;19917;-81
2023/07/18 00:35:57;;;;;;;;;;;;;;;14.01;100.00;102172.44;5036600;28;19963;-81
2023/07/18 00:38:23;;;;;;;;;;;;;;;14.01;100.00;102177.78;5036308;28;19966;-81
2023/07/18 00:40:48;;;;;;;;;;;;;;;14.00;100.00;102171.59;5035982;28;20004;-82
2023/07/18 00:43:14;;;;;;;;;;;;;;;13.99;100.00;102180.59;5036626;28;19974;-83
2023/07/18 00:45:41;;;;;;;;;;;;;;;13.98;100.00;102176.22;5018290;28;20119;-82
2023/07/18 00:48:07;;;;;;;;;;;;;;;13.98;100.00;102184.25;5018172;28;19913;-83
2023/07/18 00:50:32;;;;;;;;;;;;;;;13.95;100.00;102179.16;5035613;28;20349;-81
2023/07/18 00:53:00;;;;;;;;;;;;;;;13.93;100.00;102181.13;5035628;28;19921;-83
2023/07/18 00:55:26;;;;;;;;;;;;;;;13.90;100.00;102181.38;5017796;28;19913;-83
2023/07/18 00:57:53;;;;;;;;;;;;;;;13.86;100.00;102174.56;5035284;28;19978;-82
2023/07/18 01:00:22;;;;;;;;;;;;;;;13.81;100.00;102177.63;5017839;28;19917;-82
2023/07/18 01:02:48;;;;;;;;;;;;;;;13.79;100.00;102176.91;5035554;28;19917;-83
2023/07/18 01:05:17;;;;;;;;;;;;;;;13.74;100.00;102176.44;5035558;28;19923;-83
2023/07/18 01:07:42;;;;;;;;;;;;;;;13.72;100.00;102181.09;5035000;28;19996;-83
2023/07/18 01:10:14;;;;;;;;;;;;;;;13.68;100.00;102179.63;5035483;28;19967;-83
2023/07/18 01:12:39;;;;;;;;;;;;;;;13.65;100.00;102171.88;5035781;28;19920;-83
2023/07/18 01:15:05;;;;;;;;;;;;;;;13.63;100.00;102168.44;5035321;28;19917;-81
2023/07/18 01:17:31;;;;;;;;;;;;;;;13.60;100.00;102169.56;5035182;28;19913;-81
2023/07/18 01:19:57;;;;;;;;;;;;;;;13.56;100.00;102168.13;5035640;28;19983;-81
2023/07/18 01:22:22;;;;;;;;;;;;;;;13.52;100.00;102169.34;5017754;28;19917;-81
2023/07/18 01:24:53;;;;;;;;;;;;;;;13.49;100.00;102166.91;5017269;28;19966;-81
2023/07/18 01:27:18;;;;;;;;;;;;;;;13.43;100.00;102162.91;5035664;28;19948;-81
2023/07/18 01:29:45;;;;;;;;;;;;;;;13.44;100.00;102166.47;5034697;28;19953;-81
2023/07/18 01:32:11;;;;;;;;;;;;;;;13.42;100.00;102163.91;5035065;28;20418;-81
2023/07/18 01:34:36;;;;;;;;;;;;;;;13.42;100.00;102158.56;5034819;28;19913;-82
2023/07/18 01:37:02;;;;;;;;;;;;;;;13.43;100.00;102164.75;5034785;28;20301;-82
2023/07/18 01:39:27;;;;;;;;;;;;;;;13.43;100.00;102152.22;5034548;28;19916;-81
2023/07/18 01:41:53;;;;;;;;;;;;;;;13.45;100.00;102155.63;5034789;28;19940;-81
2023/07/18 01:44:18;;;;;;;;;;;;;;;13.48;100.00;102149.16;5035455;28;20079;-81
2023/07/18 01:46:43;;;;;;;;;;;;;;;13.50;100.00;102136.53;5016257;28;19917;-81
2023/07/18 01:49:09;;;;;;;;;;;;;;;13.48;100.00;102136.66;5017019;28;19913;-82
2023/07/18 01:51:37;;;;;;;;;;;;;;;13.46;100.00;102137.75;5035134;28;19955;-82
2023/07/18 01:54:07;;;;;;;;;;;;;;;13.39;100.00;102143.63;5035142;28;19951;-82
2023/07/18 01:59:35;;;;;;;;;;;;;;;13.28;100.00;102142.75;5034404;28;20380;-82
2023/07/18 02:02:03;;;;;;;;;;;;;;;13.22;100.00;102138.75;5034648;28;19917;-81
2023/07/18 02:04:37;;;;;;;;;;;;;;;13.22;100.00;102136.09;5034286;28;19975;-81
2023/07/18 02:07:02;;;;;;;;;;;;;;;13.24;100.00;102139.47;5034362;28;19917;-81
2023/07/18 02:09:28;;;;;;;;;;;;;;;13.24;100.00;102136.78;5034074;28;19941;-81
2023/07/18 02:11:54;;;;;;;;;;;;;;;13.22;100.00;102131.56;5016578;28;19913;-81
2023/07/18 02:14:20;;;;;;;;;;;;;;;13.24;100.00;102139.47;5033980;28;19924;-81
2023/07/18 02:16:45;;;;;;;;;;;;;;;13.22;100.00;102136.09;5016629;28;19917;-81
2023/07/18 02:19:11;;;;;;;;;;;;;;;13.18;100.00;102137.31;5034219;28;19917;-81
2023/07/18 02:21:36;;;;;;;;;;;;;;;13.14;100.00;102130.53;5034636;28;19924;-82
2023/07/18 02:24:03;;;;;;;;;;;;;;;13.11;100.00;102126.28;5033779;28;19917;-82
2023/07/18 02:26:29;;;;;;;;;;;;;;;13.09;100.00;102127.38;5015936;28;20020;-82
2023/07/18 02:28:55;;;;;;;;;;;;;;;13.08;100.00;102121.19;5033546;28;20246;-82
2023/07/18 02:31:21;;;;;;;;;;;;;;;13.05;100.00;102126.78;5033781;28;20510;-83
2023/07/18 02:33:46;;;;;;;;;;;;;;;13.01;100.00;102122.66;5033981;28;19964;-81
2023/07/18 02:36:12;;;;;;;;;;;;;;;12.97;100.00;102126.53;5016311;28;19979;-83
2023/07/18 02:38:37;;;;;;;;;;;;;;;12.94;100.00;102126.78;5016544;28;20007;-82
2023/07/18 02:41:02;;;;;;;;;;;;;;;12.90;100.00;102122.66;5034235;28;19952;-82
2023/07/18 02:43:28;;;;;;;;;;;;;;;12.85;100.00;102123.88;5016179;28;19917;-82
2023/07/18 02:45:53;;;;;;;;;;;;;;;12.84;100.00;102122.19;5034338;28;19943;-82
2023/07/18 02:48:18;;;;;;;;;;;;;;;12.83;100.00;102124.97;5033498;28;19984;-81
2023/07/18 02:50:44;;;;;;;;;;;;;;;12.80;100.00;102122.56;5033739;28;19924;-81
2023/07/18 02:53:10;;;;;;;;;;;;;;;12.77;100.00;102131.66;5033821;28;20324;-81
2023/07/18 02:55:38;;;;;;;;;;;;;;;12.76;100.00;102119.25;5016237;28;19959;-81
2023/07/18 02:58:04;;;;;;;;;;;;;;;12.76;100.00;102123.75;5034257;28;19917;-81
2023/07/18 03:00:31;;;;;;;;;;;;;;;12.73;100.00;102127.50;5038201;28;20237;-81
2023/07/18 03:02:56;;;;;;;;;;;;;;;12.74;100.00;102128.38;5038246;28;20348;-81
2023/07/18 03:05:22;;;;;;;;;;;;;;;12.76;100.00;102129.09;5037416;28;19986;-81
2023/07/18 03:07:48;;;;;;;;;;;;;;;12.76;100.00;102131.78;5037280;28;20398;-81
2023/07/18 03:10:13;;;;;;;;;;;;;;;12.78;100.00;102133.34;5019789;28;20011;-81
2023/07/18 03:12:40;;;;;;;;;;;;;;;12.80;100.00;102128.72;5037758;28;19913;-81
2023/07/18 03:15:11;;;;;;;;;;;;;;;12.82;100.00;102125.94;5037262;28;19917;-81
2023/07/18 03:17:37;;;;;;;;;;;;;;;12.83;100.00;102120.47;5037453;28;19913;-81
2023/07/18 03:20:10;;;;;;;;;;;;;;;12.86;100.00;102122.06;5037081;28;19917;-81
2023/07/18 03:22:36;;;;;;;;;;;;;;;12.85;100.00;102118.53;5037405;28;19913;-81
2023/07/18 03:25:07;;;;;;;;;;;;;;;12.84;100.00;102119.50;5037642;28;19924;-81
2023/07/18 03:27:33;;;;;;;;;;;;;;;12.81;100.00;102118.91;5019170;28;19948;-81
2023/07/18 03:29:58;;;;;;;;;;;;;;;12.78;100.00;102128.00;5019674;28;19921;-81
2023/07/18 03:32:24;;;;;;;;;;;;;;;12.76;100.00;102127.25;5037062;28;19913;-81
2023/07/18 03:34:50;;;;;;;;;;;;;;;12.74;100.00;102129.22;5037347;28;19913;-81
2023/07/18 03:37:15;;;;;;;;;;;;;;;12.73;100.00;102134.69;5037529;28;19924;-81
2023/07/18 03:39:41;;;;;;;;;;;;;;;12.70;100.00;102133.09;5036818;28;20289;-81
2023/07/18 03:42:06;;;;;;;;;;;;;;;12.68;100.00;102132.38;5036670;28;19924;-81
2023/07/18 03:44:35;;;;;;;;;;;;;;;12.66;100.00;102123.66;5036157;28;19924;-82
2023/07/18 03:47:04;;;;;;;;;;;;;;;12.65;100.00;102133.47;5036745;28;19913;-82
2023/07/18 03:49:29;;;;;;;;;;;;;;;12.63;100.00;102127.41;5036492;28;20019;-82
2023/07/18 03:51:54;;;;;;;;;;;;;;;12.60;100.00;102124.97;5019013;28;20440;-81
2023/07/18 03:54:20;;;;;;;;;;;;;;;12.56;100.00;102131.53;5036785;28;20345;-81
2023/07/18 03:56:45;;;;;;;;;;;;;;;12.52;100.00;102130.94;5036666;28;20262;-81
2023/07/18 03:59:11;;;;;;;;;;;;;;;12.50;100.00;102130.19;5036555;28;19925;-81
2023/07/18 04:01:36;;;;;;;;;;;;;;;12.45;100.00;102131.50;5036915;28;19913;-82
2023/07/18 04:04:01;;;;;;;;;;;;;;;12.42;100.00;102129.94;5036654;28;19917;-81
2023/07/18 04:06:27;;;;;;;;;;;;;;;12.39;100.00;102126.66;5037286;28;19923;-83
2023/07/18 04:08:53;;;;;;;;;;;;;;;12.39;100.00;102126.66;5018658;28;19917;-83
2023/07/18 04:11:19;;;;;;;;;;;;;;;12.39;100.00;102127.53;5039127;28;19917;-83
2023/07/18 04:13:44;;;;;;;;;;;;;;;12.40;100.00;102128.34;5037035;28;20273;-83
2023/07/18 04:16:09;;;;;;;;;;;;;;;12.38;100.00;102132.97;5036558;28;19956;-82
2023/07/18 04:18:35;;;;;;;;;;;;;;;12.38;100.00;102125.81;5019229;28;19971;-82
2023/07/18 04:21:03;;;;;;;;;;;;;;;12.38;100.00;102123.16;5036374;28;19923;-81
2023/07/18 04:23:31;;;;;;;;;;;;;;;12.38;100.00;102122.31;5036287;28;19913;-81
2023/07/18 04:26:01;;;;;;;;;;;;;;;12.43;100.00;102130.78;5036034;28;20361;-81
2023/07/18 04:28:27;;;;;;;;;;;;;;;12.49;100.00;102119.63;5036564;28;19913;-82
2023/07/18 04:30:52;;;;;;;;;;;;;;;12.56;100.00;102117.34;5035914;28;20262;-83
2023/07/18 04:33:17;;;;;;;;;;;;;;;12.58;100.00;102116.22;5036272;28;20459;-83
2023/07/18 04:35:44;;;;;;;;;;;;;;;12.60;100.00;102116.97;5036866;28;20408;-83
2023/07/18 04:38:11;;;;;;;;;;;;;;;12.67;100.00;102104.84;5039023;28;19959;-81
2023/07/18 04:40:36;;;;;;;;;;;;;;;12.73;100.00;102103.47;5036702;28;19924;-81
2023/07/18 04:43:02;;;;;;;;;;;;;;;12.79;100.00;102104.81;5035929;28;19914;-81
2023/07/18 04:45:27;;;;;;;;;;;;;;;12.85;100.00;102105.19;5036224;28;19921;-82
2023/07/18 04:47:52;;;;;;;;;;;;;;;12.92;100.00;102102.03;5018315;28;19919;-81
2023/07/18 04:50:17;;;;;;;;;;;;;;;12.98;100.00;102097.03;5036000;28;19924;-82
2023/07/18 04:52:43;;;;;;;;;;;;;;;13.07;100.00;102097.25;5035753;28;19963;-81
2023/07/18 04:55:09;;;;;;;;;;;;;;;13.17;100.00;102096.38;5035742;28;19917;-83
2023/07/18 04:57:34;;;;;;;;;;;;;;;13.29;100.00;102093.69;5018881;28;19920;-83
2023/07/18 05:00:00;;;;;;;;;;;;;;;13.41;100.00;102090.03;5035643;28;20272;-82
2023/07/18 05:02:25;;;;;;;;;;;;;;;13.53;100.00;102090.84;5035970;28;19913;-82
2023/07/18 05:04:50;;;;;;;;;;;;;;;13.58;100.00;102088.59;5035376;28;19964;-82
2023/07/18 05:07:16;;;;;;;;;;;;;;;13.63;100.00;102083.75;5017622;28;19917;-82
2023/07/18 05:09:42;;;;;;;;;;;;;;;13.65;100.00;102083.59;5035197;28;19913;-82
2023/07/18 05:12:07;;;;;;;;;;;;;;;13.65;100.00;102083.59;5035960;28;20380;-82
2023/07/18 05:14:33;;;;;;;;;;;;;;;13.62;100.00;102083.88;5035353;28;20357;-81
2023/07/18 05:16:58;;;;;;;;;;;;;;;13.58;100.00;102077.91;5035273;28;19917;-82
2023/07/18 05:19:24;;;;;;;;;;;;;;;13.55;100.00;102084.38;5035183;28;20349;-83
2023/07/18 05:21:52;;;;;;;;;;;;;;;13.54;100.00;102087.16;5034101;28;19917;-83
2023/07/18 05:24:17;;;;;;;;;;;;;;;13.56;100.00;102087.91;5035065;28;19913;-80
2023/07/18 05:26:43;;;;;;;;;;;;;;;13.56;100.00;102094.09;5035300;28;20022;-82
2023/07/18 05:29:08;;;;;;;;;;;;;;;13.58;100.00;102096.63;5016774;28;19921;-82
2023/07/18 05:31:36;;;;;;;;;;;;;;;13.63;100.00;102097.09;5034811;28;19924;-83
2023/07/18 05:34:02;;;;;;;;;;;;;;;13.69;100.00;102093.91;5034653;28;20007;-82
2023/07/18 05:36:27;;;;;;;;;;;;;;;13.74;100.00;102094.38;5034744;28;20000;-82
2023/07/18 05:38:56;;;;;;;;;;;;;;;13.83;100.00;102099.94;5034137;28;19917;-83
2023/07/18 05:41:21;;;;;;;;;;;;;;;13.92;100.00;102096.47;5033969;28;19913;-83
2023/07/18 05:43:47;;;;;;;;;;;;;;;14.01;100.00;102101.03;5016820;28;19924;-83
2023/07/18 05:46:12;;;;;;;;;;;;;;;14.08;100.00;102102.22;5034323;28;19924;-84
2023/07/18 05:48:38;;;;;;;;;;;;;;;14.18;100.00;102101.41;5034199;28;20368;-84
2023/07/18 05:51:04;;;;;;;;;;;;;;;14.28;100.00;102108.50;5017348;28;19948;-86
2023/07/18 05:53:29;;;;;;;;;;;;;;;14.37;100.00;102104.19;5034387;28;19920;-84
2023/07/18 05:55:54;;;;;;;;;;;;;;;14.46;100.00;102106.09;5034453;28;19912;-85
2023/07/18 05:58:19;;;;;;;;;;;;;;;14.55;100.00;102112.44;5016413;28;19924;-85
2023/07/18 06:00:45;;;;;;;;;;;;;;;14.66;100.00;102108.00;5034414;28;19984;-89
2023/07/18 06:03:10;;;;;;;;;;;;;;;14.75;100.00;102109.88;5034234;28;20281;-85
2023/07/18 06:05:35;;;;;;;;;;;;;;;14.84;100.00;102108.22;5034841;28;19917;-85
2023/07/18 06:08:00;;;;;;;;;;;;;;;14.94;100.00;102106.41;5034384;28;19917;-84
2023/07/18 06:10:26;;;;;;;;;;;;;;;15.07;100.00;102112.38;5034356;28;19967;-85
2023/07/18 06:12:51;;;;;;;;;;;;;;;15.22;100.00;102112.81;5034139;28;19920;-85
2023/07/18 06:15:18;;;;;;;;;;;;;;;15.38;100.00;102103.41;5034230;28;19921;-86
2023/07/18 06:17:44;;;;;;;;;;;;;;;15.52;100.00;102108.34;5034778;28;19986;-84
2023/07/18 06:20:12;;;;;;;;;;;;;;;15.62;100.00;102116.41;5034572;28;20312;-86
2023/07/18 06:22:38;;;;;;;;;;;;;;;15.78;100.00;102123.88;5033810;28;19924;-85
2023/07/18 06:25:03;;;;;;;;;;;;;;;15.97;100.00;102117.66;5034246;28;19920;-85
2023/07/18 06:27:28;;;;;;;;;;;;;;;16.14;100.00;102133.03;5015832;28;20438;-84
2023/07/18 06:29:54;;;;;;;;;;;;;;;16.34;100.00;102131.16;5017037;28;19921;-84
2023/07/18 06:32:20;;;;;;;;;;;;;;;16.60;100.00;102119.78;5033535;28;19971;-86
2023/07/18 06:34:45;;;;;;;;;;;;;;;16.86;100.00;102125.28;5016317;28;20007;-84
2023/07/18 06:37:11;;;;;;;;;;;;;;;17.00;100.00;102129.34;5034199;28;19955;-85
2023/07/18 06:39:36;;;;;;;;;;;;;;;17.13;100.00;102137.06;5033877;28;19936;-84
2023/07/18 06:42:02;;;;;;;;;;;;;;;17.29;100.00;102136.41;5034037;28;19920;-84
2023/07/18 06:44:27;;;;;;;;;;;;;;;17.34;100.00;102130.56;5016294;28;19932;-84
2023/07/18 06:46:52;;;;;;;;;;;;;;;17.38;100.00;102130.13;5034533;28;19985;-85
2023/07/18 06:49:18;;;;;;;;;;;;;;;17.45;100.00;102138.41;5033925;28;20015;-83
2023/07/18 06:51:44;;;;;;;;;;;;;;;17.52;100.00;102130.59;5033942;28;20061;-85
2023/07/18 06:54:09;;;;;;;;;;;;;;;17.58;100.00;102124.56;5016536;28;20268;-82
2023/07/18 06:56:36;;;;;;;;;;;;;;;17.65;100.00;102128.34;5033823;28;20361;-83
2023/07/18 06:59:02;;;;;;;;;;;;;;;17.80;100.00;102131.34;5034326;28;19919;-84
2023/07/18 07:01:27;;;;;;;;;;;;;;;17.90;100.00;102132.13;5033377;28;19953;-83
2023/07/18 07:03:53;;;;;;;;;;;;;;;17.98;100.00;102128.66;5033503;28;19999;-84
2023/07/18 07:06:20;;;;;;;;;;;;;;;18.05;100.00;102127.03;5033774;28;20328;-84
2023/07/18 07:08:45;;;;;;;;;;;;;;;18.02;100.00;102127.34;5033634;28;20027;-85
2023/07/18 07:11:10;;;;;;;;;;;;;;;17.97;100.00;102127.81;5033892;28;19917;-84
2023/07/18 07:13:36;;;;;;;;;;;;;;;18.04;100.00;102122.63;5033276;28;19916;-85
2023/07/18 07:16:04;;;;;;;;;;;;;;;18.03;100.00;102117.41;5033449;28;19913;-84
2023/07/18 07:18:29;;;;;;;;;;;;;;;18.10;100.00;102115.78;5033917;28;19913;-84
2023/07/18 07:20:54;;;;;;;;;;;;;;;18.21;100.00;102118.19;5033363;28;19913;-84
2023/07/18 07:23:20;;;;;;;;;;;;;;;18.20;100.00;102124.59;5000172;28;19924;-84
2023/07/18 07:25:45;;;;;;;;;;;;;;;18.20;100.00;102123.75;5015656;28;20275;-84
2023/07/18 07:28:11;;;;;;;;;;;;;;;18.08;100.00;102117.78;5034135;28;19968;-85
2023/07/18 07:30:36;;;;;;;;;;;;;;;17.94;100.00;102114.66;5033411;28;19913;-85
2023/07/18 07:33:06;;;;;;;;;;;;;;;17.84;100.00;102123.78;5033314;28;19980;-84
2023/07/18 07:35:31;;;;;;;;;;;;;;;17.91;100.00;102119.50;5033548;28;19939;-84
2023/07/18 07:37:56;;;;;;;;;;;;;;;18.01;100.00;102125.63;5033578;28;19917;-84
2023/07/18 07:40:22;;;;;;;;;;;;;;;18.10;100.00;102121.16;5033747;28;19917;-85
2023/07/18 07:42:50;;;;;;;;;;;;;;;18.26;100.00;102113.19;5016318;28;19927;-84
2023/07/18 07:45:16;;;;;;;;;;;;;;;18.39;100.00;102110.09;5034950;28;20301;-85
2023/07/18 07:47:42;;;;;;;;;;;;;;;18.42;100.00;102111.59;5037271;28;20406;-84
2023/07/18 07:50:07;;;;;;;;;;;;;;;18.41;100.00;102105.38;5003267;28;19913;-84
2023/07/18 07:52:33;;;;;;;;;;;;;;;18.61;100.00;102110.50;5036579;28;20044;-84
2023/07/18 07:54:59;;;;;;;;;;;;;;;18.85;100.00;102104.38;5037103;28;20333;-84
2023/07/18 07:57:24;;;;;;;;;;;;;;;19.06;100.00;102108.50;5018853;28;19949;-84
2023/07/18 07:59:51;;;;;;;;;;;;;;;19.20;100.00;102105.19;5018766;28;20367;-83
2023/07/18 08:02:16;;;;;;;;;;;;;;;19.17;100.00;102110.91;5037001;28;19913;-83
2023/07/18 08:04:42;;;;;;;;;;;;;;;19.25;100.00;102110.09;5036418;28;19919;-85
2023/07/18 08:07:07;;;;;;;;;;;;;;;19.35;100.00;102108.09;5002852;28;19963;-83
2023/07/18 08:09:33;;;;;;;;;;;;;;;19.46;100.00;102105.03;5036963;28;19968;-83
2023/07/18 08:11:58;;;;;;;;;;;;;;;19.63;100.00;102108.63;5036705;28;19913;-83
2023/07/18 08:14:24;;;;;;;;;;;;;;;19.81;100.00;102110.31;5019088;28;19963;-84
2023/07/18 08:16:49;;;;;;;;;;;;;;;19.94;100.00;102107.09;5036225;28;19917;-84
2023/07/18 08:19:15;;;;;;;;;;;;;;;20.22;100.00;102107.56;5037305;28;19960;-85
2023/07/18 08:21:40;;;;;;;;;;;;;;;20.49;100.00;102100.06;5018747;28;20011;-82
2023/07/18 08:24:05;;;;;;;;;;;;;;;20.49;100.00;102098.19;5036302;28;19921;-81
2023/07/18 08:26:31;;;;;;;;;;;;;;;20.50;100.00;102102.59;5036334;28;19921;-82
2023/07/18 08:28:56;;;;;;;;;;;;;;;20.58;100.00;102110.66;5036260;28;19931;-83
2023/07/18 08:31:21;;;;;;;;;;;;;;;20.76;100.00;102107.75;5036952;28;19913;-85
2023/07/18 08:33:47;;;;;;;;;;;;;;;21.22;100.00;102106.16;5036331;28;20336;-84
2023/07/18 08:36:12;;;;;;;;;;;;;;;21.74;100.00;102102.75;5037364;28;20008;-84
2023/07/18 08:38:37;;;;;;;;;;;;;;;21.80;100.00;102102.03;5036057;28;20360;-82
2023/07/18 08:41:03;;;;;;;;;;;;;;;21.83;100.00;102095.41;5018775;28;19925;-85
2023/07/18 08:43:29;;;;;;;;;;;;;;;21.81;100.00;102092.88;5036544;28;19913;-82
2023/07/18 08:45:55;;;;;;;;;;;;;;;21.87;100.00;102098.56;5035577;28;19919;-82
2023/07/18 08:48:20;;;;;;;;;;;;;;;21.98;100.00;102093.53;5018164;28;19920;-83
2023/07/18 08:50:47;;;;;;;;;;;;;;;22.13;100.00;102090.03;5036447;28;19917;-83
2023/07/18 08:53:12;;;;;;;;;;;;;;;21.77;100.00;102088.00;5035891;28;20277;-83
2023/07/18 08:55:38;;;;;;;;;;;;;;;21.65;100.00;102090.31;5035693;28;19921;-81
2023/07/18 08:58:04;;;;;;;;;;;;;;;21.60;100.00;102087.28;5035497;28;19939;-82
2023/07/18 09:00:29;;;;;;;;;;;;;;;21.57;100.00;102082.25;5035782;28;19913;-82
2023/07/18 09:02:54;;;;;;;;;;;;;;;21.62;100.00;102090.69;5018069;28;19917;-82
2023/07/18 09:05:30;;;;;;;;;;;;;;;21.81;100.00;102083.88;5035627;28;19951;-81
2023/07/18 09:07:56;;;;;;;;;;;;;;;21.97;100.00;102082.91;5035254;28;20361;-84
2023/07/18 09:10:21;;;;;;;;;;;;;;;22.14;100.00;102089.84;5035439;28;19913;-82
2023/07/18 09:12:47;;;;;;;;;;;;;;;22.31;100.00;102079.69;5017784;28;20277;-81
2023/07/18 09:15:21;;;;;;;;;;;;;;;22.52;100.00;102076.19;5035341;28;20300;-82
2023/07/18 09:17:47;;;;;;;;;;;;;;;23.02;100.00;102076.41;5017655;28;20421;-84
2023/07/18 09:20:16;;;;;;;;;;;;;;;23.42;100.00;102070.53;5035399;28;19913;-84
2023/07/18 09:22:41;;;;;;;;;;;;;;;23.74;100.00;102068.31;5035008;28;19913;-83
2023/07/18 09:25:07;;;;;;;;;;;;;;;24.04;100.00;102060.81;5035126;28;20343;-83
2023/07/18 09:27:35;;;;;;;;;;;;;;;24.22;100.00;102059.47;5034711;28;19930;-82
2023/07/18 09:30:00;;;;;;;;;;;;;;;24.17;100.00;102061.94;5034886;28;20007;-84
2023/07/18 09:32:26;;;;;;;;;;;;;;;24.10;100.00;102067.34;5035251;28;20046;-84
2023/07/18 09:34:52;;;;;;;;;;;;;;;23.94;100.00;102060.34;5034992;28;19913;-84
2023/07/18 09:37:17;;;;;;;;;;;;;;;23.83;100.00;102067.13;5035938;28;20008;-84
2023/07/18 09:39:43;;;;;;;;;;;;;;;23.85;100.00;102061.50;5020288;28;19949;-81
2023/07/18 09:42:10;;;;;;;;;;;;;;;23.88;100.00;102063.84;5035491;28;19923;-83
2023/07/18 09:44:37;;;;;;;;;;;;;;;24.25;100.00;102053.63;5036230;28;19913;-82
2023/07/18 09:47:02;;;;;;;;;;;;;;;24.56;96.71;102052.31;5035027;28;19956;-85
2023/07/18 09:49:28;;;;;;;;;;;;;;;25.25;87.17;102053.16;5035386;28;19986;-83
2023/07/18 09:52:02;;;;;;;;;;;;;;;25.26;79.39;102050.22;5017172;28;19917;-81
2023/07/18 09:54:27;;;;;;;;;;;;;;;25.22;86.14;102053.56;5034558;28;19913;-83
2023/07/18 09:56:54;;;;;;;;;;;;;;;24.77;86.92;102057.66;5034176;28;20016;-83
2023/07/18 09:59:20;;;;;;;;;;;;;;;24.40;89.47;102046.16;5017645;28;19921;-83
2023/07/18 10:01:48;;;;;;;;;;;;;;;24.80;95.10;102054.50;5034797;28;20363;-82
2023/07/18 10:04:15;;;;;;;;;;;;;;;25.07;84.74;102051.03;5034596;28;19913;-82
2023/07/18 10:06:40;;;;;;;;;;;;;;;25.29;80.81;102044.34;5036952;28;19924;-81
2023/07/18 10:09:06;;;;;;;;;;;;;;;24.91;87.04;102030.47;5017819;28;20353;-83
2023/07/18 10:11:31;;;;;;;;;;;;;;;24.69;87.68;102036.03;5034498;28;19935;-83
2023/07/18 10:14:05;;;;;;;;;;;;;;;25.17;89.23;102035.13;5034083;28;19917;-83
2023/07/18 10:16:34;;;;;;;;;;;;;;;25.71;87.55;102022.38;5016316;28;19920;-83
2023/07/18 10:19:14;;;;;;;;;;;;;;;26.53;83.18;102017.31;5033941;28;20266;-81
2023/07/18 10:21:43;;;;;;;;;;;;;;;27.34;75.34;102011.41;5034477;28;20010;-82
2023/07/18 10:24:24;;;;;;;;;;;;;;;28.05;65.26;101999.16;5034791;28;20257;-83
2023/07/18 10:26:57;;;;;;;;;;;;;;;28.01;57.25;102000.66;5034522;28;19964;-80
2023/07/18 10:29:22;;;;;;;;;;;;;;;27.56;60.55;102000.91;5033968;28;20360;-82
2023/07/18 10:31:48;;;;;;;;;;;;;;;26.44;60.10;101999.53;5034689;28;19928;-81
2023/07/18 10:34:17;;;;;;;;;;;;;;;25.13;70.53;101998.47;5034186;28;20353;-82
2023/07/18 10:36:55;;;;;;;;;;;;;;;24.14;72.04;101997.94;5033873;28;19919;-81
2023/07/18 10:39:34;;;;;;;;;;;;;;;23.55;81.80;102001.94;5034098;28;19913;-83
2023/07/18 10:42:06;;;;;;;;;;;;;;;24.29;82.99;101993.19;5034038;28;20012;-82
2023/07/18 10:44:33;;;;;;;;;;;;;;;25.83;65.69;101996.13;5033737;28;19917;-80
2023/07/18 10:46:59;;;;;;;;;;;;;;;26.98;58.33;101999.25;5016488;28;20349;-81
2023/07/18 10:49:29;;;;;;;;;;;;;;;26.94;56.86;101998.00;5021987;28;19924;-83
2023/07/18 10:51:54;;;;;;;;;;;;;;;27.53;57.39;101999.44;5034361;28;19944;-82
2023/07/18 10:54:20;;;;;;;;;;;;;;;27.59;51.87;101994.97;5034570;28;19913;-81
2023/07/18 10:56:46;;;;;;;;;;;;;;;27.26;57.40;101996.09;5034409;28;20332;-83
2023/07/18 10:59:12;;;;;;;;;;;;;;;27.12;54.04;101989.88;5034643;28;19913;-82
2023/07/18 11:01:39;;;;;;;;;;;;;;;26.84;56.27;101979.38;5033781;28;19913;-82
2023/07/18 11:04:05;;;;;;;;;;;;;;;26.13;58.58;101975.75;5033954;28;19913;-82
2023/07/18 11:06:31;;;;;;;;;;;;;;;25.63;65.54;101981.69;5017092;28;19913;-82
2023/07/18 11:08:56;;;;;;;;;;;;;;;26.40;66.32;101979.19;5034329;28;19920;-84
2023/07/18 11:11:22;;;;;;;;;;;;;;;26.79;59.96;101980.03;5034534;28;19919;-83
2023/07/18 11:13:47;;;;;;;;;;;;;;;26.87;61.06;101987.13;5034506;28;19920;-81
2023/07/18 11:16:14;;;;;;;;;;;;;;;27.05;54.35;101979.03;5033667;28;19940;-83
2023/07/18 11:18:46;;;;;;;;;;;;;;;27.38;50.81;101977.06;5016631;28;19913;-84
2023/07/18 11:21:13;;;;;;;;;;;;;;;26.75;52.66;101976.06;5038230;28;19913;-83
2023/07/18 11:23:39;;;;;;;;;;;;;;;25.64;59.18;101973.31;5038227;28;19916;-83
2023/07/18 11:26:12;;;;;;;;;;;;;;;24.77;62.02;101964.28;5037902;28;19913;-82
2023/07/18 11:28:40;;;;;;;;;;;;;;;24.19;67.17;101962.81;5038069;28;19971;-82
2023/07/18 11:31:11;;;;;;;;;;;;;;;24.52;67.53;101966.72;5037890;28;19978;-81
2023/07/18 11:33:37;;;;;;;;;;;;;;;25.83;61.89;101966.16;5019886;28;19920;-84
2023/07/18 11:36:08;;;;;;;;;;;;;;;26.35;58.00;101966.19;5037860;28;19917;-84
2023/07/18 11:38:38;;;;;;;;;;;;;;;26.12;55.97;101966.72;5037722;28;19913;-84
2023/07/18 11:41:05;;;;;;;;;;;;;;;25.66;63.39;101959.47;5038003;28;19913;-82
2023/07/18 11:43:30;;;;;;;;;;;;;;;25.88;63.76;101954.59;5037739;28;19919;-83
2023/07/18 11:45:56;;;;;;;;;;;;;;;26.15;61.38;101960.00;5037656;28;19960;-85
2023/07/18 11:48:22;;;;;;;;;;;;;;;26.17;59.68;101963.31;5019620;28;19970;-83
2023/07/18 11:50:48;;;;;;;;;;;;;;;26.46;55.84;101959.22;5037038;28;20133;-83
2023/07/18 11:53:25;;;;;;;;;;;;;;;27.31;52.45;101947.06;5037265;28;19913;-83
2023/07/18 11:55:55;;;;;;;;;;;;;;;27.80;48.98;101944.50;5036896;28;19913;-82
2023/07/18 11:58:26;;;;;;;;;;;;;;;28.52;46.13;101953.94;5037184;28;19959;-84
2023/07/18 12:00:56;;;;;;;;;;;;;;;28.81;49.86;101939.41;5004475;28;19917;-84
2023/07/18 12:03:22;;;;;;;;;;;;;;;28.67;44.49;101949.69;5038189;28;19936;-84
2023/07/18 12:05:47;;;;;;;;;;;;;;;28.50;45.87;101943.22;5038459;28;20373;-86
2023/07/18 12:08:13;;;;;;;;;;;;;;;28.36;45.79;101938.97;5020105;28;19950;-84
2023/07/18 12:10:38;;;;;;;;;;;;;;;28.15;44.96;101936.50;5038657;28;19924;-86
2023/07/18 12:13:05;;;;;;;;;;;;;;;27.74;44.03;101945.41;5019956;28;19917;-85
2023/07/18 12:15:40;;;;;;;;;;;;;;;26.88;48.33;101943.22;5020755;28;19913;-88
2023/07/18 12:18:07;;;;;;;;;;;;;;;26.77;47.15;101949.41;5021480;28;20265;-89
2023/07/18 12:20:37;;;;;;;;;;;;;;;27.06;50.11;101930.69;5020270;28;20430;-87
2023/07/18 12:23:02;;;;;;;;;;;;;;;26.49;48.63;101944.31;5020357;28;20262;-88
2023/07/18 12:25:37;;;;;;;;;;;;;;;25.78;51.63;101940.59;5038007;28;19964;-85
2023/07/18 12:28:03;;;;;;;;;;;;;;;25.68;52.70;101941.88;5021136;28;19979;-88
2023/07/18 12:30:41;;;;;;;;;;;;;;;;;;;;;